Time;durP1;ratioP1;P1;durP2;ratioP2;P2;SDS_P1;SDS_P2;PMS_P1;PMS_P2;Temp;Humidity;BMP_temperature;BMP_pressure;BME280_temperature;BME280_humidity;BME280_pressure;Samples;Min_cycle;Max_cycle;Signal;HPM_P1;HPM_P2
2022/05/27 00:00:20;;;;;;;2.15;0.82;;;;;;;14.76;72.96;100498.94;5072870;28;20090;-77
2022/05/27 00:02:47;;;;;;;3.30;1.08;;;;;;;14.74;73.32;100499.16;5072914;28;20064;-76
2022/05/27 00:05:14;;;;;;;2.47;1.00;;;;;;;14.78;73.22;100496.84;5072783;28;20397;-76
2022/05/27 00:07:39;;;;;;;6.38;1.45;;;;;;;14.77;73.34;100493.28;5054517;28;20036;-77
2022/05/27 00:10:06;;;;;;;3.30;0.90;;;;;;;14.76;73.46;100488.09;5072624;28;20033;-77
2022/05/27 00:12:32;;;;;;;4.70;1.10;;;;;;;14.73;73.62;100486.66;5076422;28;20043;-77
2022/05/27 00:14:57;;;;;;;2.90;1.10;;;;;;;14.53;73.92;100486.09;5076440;28;20478;-76
2022/05/27 00:17:22;;;;;;;;;;;;;;;14.64;73.73;100487.22;5058956;28;20067;-77
2022/05/27 00:19:47;;;;;;;3.23;1.03;;;;;;;14.63;74.08;100486.41;5076721;28;19959;-77
2022/05/27 00:22:13;;;;;;;;;;;;;;;14.63;73.77;100494.53;5077028;28;20115;-76
2022/05/27 00:24:38;;;;;;;2.30;1.00;;;;;;;14.60;74.13;100478.72;5058596;28;20054;-78
2022/05/27 00:27:05;;;;;;;;;;;;;;;14.65;73.59;100481.59;5076889;28;20471;-77
2022/05/27 00:29:30;;;;;;;2.85;1.08;;;;;;;14.57;74.34;100477.28;5077058;28;19915;-77
2022/05/27 00:31:56;;;;;;;;;;;;;;;14.58;74.82;100475.41;5076857;28;20040;-75
2022/05/27 00:34:21;;;;;;;3.17;1.03;;;;;;;14.56;75.08;100481.06;5076070;28;19920;-75
2022/05/27 00:36:46;;;;;;;;;;;;;;;14.55;75.77;100481.28;5076283;28;20469;-76
2022/05/27 00:39:11;;;;;;;3.23;1.00;;;;;;;14.49;76.40;100465.97;5075803;28;19916;-77
2022/05/27 00:41:36;;;;;;;;;;;;;;;14.43;76.08;100477.72;5057970;28;20482;-76
2022/05/27 00:44:03;;;;;;;2.13;0.90;;;;;;;14.44;75.96;100482.06;5075515;28;19914;-76
2022/05/27 00:46:33;;;;;;;3.05;1.15;;;;;;;14.40;76.27;100473.56;5057510;28;20048;-76
2022/05/27 00:49:09;;;;;;;2.00;0.80;;;;;;;14.41;76.44;100471.69;5076081;28;20064;-76
2022/05/27 00:51:58;;;;;;;3.72;0.90;;;;;;;14.37;76.80;100476.69;5075875;28;20457;-76
2022/05/27 00:54:25;;;;;;;2.83;1.13;;;;;;;14.24;77.52;100466.03;5064492;28;20043;-78
2022/05/27 00:56:54;;;;;;;2.80;1.10;;;;;;;14.32;76.66;100465.72;5075649;28;20081;-76
2022/05/27 00:59:32;;;;;;;3.47;1.25;;;;;;;14.37;76.48;100462.31;5076128;28;20424;-76
2022/05/27 01:01:59;;;;;;;4.03;1.05;;;;;;;14.33;77.06;100478.19;5075446;28;20435;-76
2022/05/27 01:04:29;;;;;;;2.42;1.05;;;;;;;14.32;77.30;100460.31;5075861;28;20055;-78
2022/05/27 01:06:55;;;;;;;2.55;1.02;;;;;;;14.38;77.18;100463.97;5074347;28;20036;-77
2022/05/27 01:09:38;;;;;;;2.33;0.90;;;;;;;14.38;76.92;100462.09;5076205;28;20079;-77
2022/05/27 01:12:21;;;;;;;6.63;1.67;;;;;;;14.37;76.73;100449.59;5075697;28;20054;-78
2022/05/27 01:15:11;;;;;;;3.17;0.95;;;;;;;14.24;77.46;100445.19;5075785;28;20075;-78
2022/05/27 01:18:24;;;;;;;3.35;1.40;;;;;;;14.23;77.17;100448.94;5058395;28;20437;-78
2022/05/27 01:21:06;;;;;;;2.17;1.10;;;;;;;14.28;77.20;100447.44;5032206;28;20041;-77
2022/05/27 01:23:52;;;;;;;2.42;1.00;;;;;;;14.28;76.78;100444.72;5074849;28;20051;-77
2022/05/27 01:26:23;;;;;;;5.88;1.52;;;;;;;14.32;76.95;100457.59;5057432;28;20028;-76
2022/05/27 01:29:06;;;;;;;3.08;1.05;;;;;;;14.32;76.93;100445.94;5075337;28;20036;-76
2022/05/27 01:31:37;;;;;;;3.63;1.25;;;;;;;14.28;76.88;100452.84;5075435;28;20082;-75
2022/05/27 01:34:07;;;;;;;4.40;1.20;;;;;;;14.31;76.89;100447.81;5075366;28;20051;-78
2022/05/27 01:36:47;;;;;;;5.63;1.17;;;;;;;14.28;76.66;100450.16;5073939;28;20033;-77
2022/05/27 01:39:26;;;;;;;3.15;1.30;;;;;;;14.24;77.01;100447.88;5075303;28;20467;-77
2022/05/27 01:42:10;;;;;;;2.53;1.13;;;;;;;14.20;77.28;100445.84;5057036;28;20044;-76
2022/05/27 01:44:57;;;;;;;3.17;1.35;;;;;;;14.35;76.53;100437.31;5074731;28;20029;-76
2022/05/27 01:47:30;;;;;;;4.00;1.40;;;;;;;14.31;76.63;100442.41;5074588;28;20071;-77
2022/05/27 01:50:20;;;;;;;2.63;1.27;;;;;;;14.33;76.83;100444.88;5075003;28;20040;-77
2022/05/27 01:53:09;;;;;;;3.78;1.42;;;;;;;14.24;78.27;100445.19;5056844;28;20032;-76
2022/05/27 01:55:40;;;;;;;3.13;1.30;;;;;;;14.19;78.55;100439.59;5074662;28;20479;-77
2022/05/27 01:58:14;;;;;;;3.33;1.65;;;;;;;14.07;79.58;100446.84;5074601;28;20024;-76
2022/05/27 02:00:43;;;;;;;3.83;1.15;;;;;;;14.02;79.82;100444.00;5074252;28;20490;-76
2022/05/27 02:03:19;;;;;;;3.45;1.17;;;;;;;13.97;80.09;100441.16;5074591;28;20029;-76
2022/05/27 02:05:55;;;;;;;3.03;1.10;;;;;;;13.97;80.19;100441.16;5056514;28;20021;-76
2022/05/27 02:08:50;;;;;;;3.50;1.35;;;;;;;13.96;80.27;100431.38;5074691;28;20041;-76
2022/05/27 02:11:19;;;;;;;3.42;1.20;;;;;;;13.97;79.93;100435.75;5056885;28;20024;-78
2022/05/27 02:14:00;;;;;;;3.03;1.20;;;;;;;13.87;80.79;100436.25;5074285;28;20487;-76
2022/05/27 02:16:36;;;;;;;4.60;1.38;;;;;;;13.88;81.30;100431.66;5056087;28;20032;-77
2022/05/27 02:19:13;;;;;;;2.92;1.20;;;;;;;13.72;82.25;100435.81;5073275;28;20095;-78
2022/05/27 02:21:50;;;;;;;3.08;1.38;;;;;;;13.63;83.15;100433.59;5074113;28;20121;-76
2022/05/27 02:24:24;;;;;;;3.78;1.20;;;;;;;13.52;84.31;100430.59;5074005;28;20030;-76
2022/05/27 02:26:56;;;;;;;7.07;1.80;;;;;;;13.46;84.67;100436.06;5073791;28;20032;-77
2022/05/27 02:29:28;;;;;;;2.65;1.10;;;;;;;13.27;86.07;100432.50;5073818;28;20426;-76
2022/05/27 02:32:01;;;;;;;3.83;1.40;;;;;;;13.13;86.65;100433.63;5072425;28;20028;-75
2022/05/27 02:37:42;;;;;;;3.75;1.40;;;;;;;12.94;88.99;100445.44;5073661;28;20048;-77
2022/05/27 02:40:37;;;;;;;4.75;1.30;;;;;;;12.90;89.84;100439.63;5073645;28;20074;-77
2022/05/27 02:43:12;;;;;;;4.53;1.65;;;;;;;12.79;90.61;100434.94;5071799;28;20040;-76
2022/05/27 02:45:51;;;;;;;3.40;1.40;;;;;;;12.74;91.34;100446.41;5072714;28;20402;-76
2022/05/27 02:48:35;;;;;;;3.95;1.80;;;;;;;12.65;92.60;100441.50;5072537;28;20028;-76
2022/05/27 02:51:19;;;;;;;5.72;1.50;;;;;;;12.63;92.74;100433.59;5056261;28;20024;-77
2022/05/27 02:53:56;;;;;;;3.50;2.00;;;;;;;12.54;93.50;100439.50;5073952;28;20115;-77
2022/05/27 02:56:35;;;;;;;4.35;1.90;;;;;;;12.48;94.44;100433.09;5073520;28;20032;-77
2022/05/27 02:59:04;;;;;;;3.75;1.52;;;;;;;12.51;94.79;100432.66;5073790;28;20052;-77
2022/05/27 03:01:32;;;;;;;4.72;1.65;;;;;;;12.42;95.05;100436.63;5073235;28;20039;-76
2022/05/27 03:04:11;;;;;;;4.40;1.90;;;;;;;12.37;95.72;100444.56;5073545;28;20024;-77
2022/05/27 03:06:56;;;;;;;3.72;1.73;;;;;;;12.37;96.50;100439.16;5074056;28;20064;-77
2022/05/27 03:09:46;;;;;;;6.03;1.80;;;;;;;12.40;97.31;100449.53;5073333;28;20024;-76
2022/05/27 03:12:23;;;;;;;5.20;1.90;;;;;;;12.27;97.26;100438.81;5073375;28;20035;-77
2022/05/27 03:15:08;;;;;;;4.57;1.90;;;;;;;12.24;98.38;100437.34;5075805;28;20029;-78
2022/05/27 03:18:07;;;;;;;5.53;2.53;;;;;;;12.21;98.77;100442.34;5076635;28;20498;-78
2022/05/27 03:21:04;;;;;;;6.50;2.63;;;;;;;12.15;99.19;100438.66;5074320;28;20032;-78
2022/05/27 03:23:53;;;;;;;5.70;2.70;;;;;;;12.22;100.00;100441.31;5076445;28;20040;-79
2022/05/27 03:26:53;;;;;;;6.30;2.63;;;;;;;12.13;100.00;100449.69;5075767;28;20048;-78
2022/05/27 03:29:34;;;;;;;6.25;2.53;;;;;;;12.09;100.00;100455.72;5074711;28;20033;-79
2022/05/27 03:32:25;;;;;;;7.03;3.30;;;;;;;11.97;100.00;100474.47;5076744;28;20083;-78
2022/05/27 03:35:17;;;;;;;5.68;2.78;;;;;;;12.13;100.00;100483.97;5077084;28;20380;-79
2022/05/27 03:37:57;;;;;;;4.95;2.17;;;;;;;11.95;100.00;100502.72;5077520;28;20036;-79
2022/05/27 03:40:42;;;;;;;4.85;1.92;;;;;;;11.73;100.00;100494.00;5059068;28;20028;-79
2022/05/27 03:43:18;;;;;;;4.75;2.17;;;;;;;11.75;100.00;100489.22;5059241;28;20119;-80
2022/05/27 03:45:58;;;;;;;4.10;1.88;;;;;;;11.76;100.00;100485.53;5079502;28;20025;-82
2022/05/27 03:48:32;;;;;;;4.32;1.73;;;;;;;11.53;100.00;100483.25;5084123;28;20032;-79
2022/05/27 03:51:11;;;;;;;3.28;1.65;;;;;;;11.66;100.00;100476.97;5066289;28;20467;-82
2022/05/27 03:56:25;;;;;;;5.07;1.60;;;;;;;11.63;100.00;100477.44;5083881;28;20052;-81
2022/05/27 03:58:50;;;;;;;3.58;1.55;;;;;;;11.49;100.00;100477.41;5079506;28;20028;-82
2022/05/27 04:01:25;;;;;;;4.03;1.83;;;;;;;11.42;100.00;100478.47;5078116;28;20428;-80
2022/05/27 04:03:51;;;;;;;5.07;1.67;;;;;;;11.48;100.00;100478.47;5059392;28;20029;-80
2022/05/27 04:06:16;;;;;;;;;;;;;;;11.49;100.00;100482.81;5078426;28;20055;-81
2022/05/27 04:08:41;;;;;;;4.15;1.77;;;;;;;11.54;100.00;100484.91;5060752;28;19920;-81
2022/05/27 04:11:07;;;;;;;3.90;1.88;;;;;;;11.56;100.00;100479.28;5079327;28;20154;-82
2022/05/27 04:13:42;;;;;;;4.40;1.97;;;;;;;11.51;100.00;100477.22;5081004;28;20032;-83
2022/05/27 04:16:10;;;;;;;4.38;2.13;;;;;;;11.57;100.00;100470.16;5082149;28;20042;-84
2022/05/27 04:18:36;;;;;;;4.85;2.10;;;;;;;11.53;100.00;100482.41;5065134;28;20528;-83
2022/05/27 04:21:05;;;;;;;5.03;2.30;;;;;;;11.51;100.00;100479.09;5083367;28;20032;-83
2022/05/27 04:23:31;;;;;;;5.22;1.88;;;;;;;11.50;100.00;100489.03;5066162;28;20033;-83
2022/05/27 04:25:56;;;;;;;6.32;1.88;;;;;;;11.52;100.00;100484.28;5085033;28;20043;-82
2022/05/27 04:28:22;;;;;;;4.38;1.77;;;;;;;11.54;100.00;100476.81;5084546;28;20094;-83
2022/05/27 04:30:47;;;;;;;3.97;1.70;;;;;;;11.56;100.00;100476.59;5085821;28;20127;-83
2022/05/27 04:33:13;;;;;;;4.70;1.98;;;;;;;11.58;100.00;100472.66;5064447;28;20131;-82
2022/05/27 04:35:42;;;;;;;5.03;1.85;;;;;;;11.60;100.00;100473.28;5066542;28;20119;-84
2022/05/27 04:38:08;;;;;;;4.50;1.92;;;;;;;11.63;100.00;100480.13;5065452;28;20062;-84
2022/05/27 04:40:35;;;;;;;4.53;1.58;;;;;;;11.66;100.00;100471.59;5065227;28;20024;-83
2022/05/27 04:43:02;;;;;;;;;;;;;;;11.68;100.00;100466.81;5064719;28;20035;-83
2022/05/27 04:45:27;;;;;;;3.05;1.40;;;;;;;11.69;100.00;100469.28;5081202;28;19913;-84
2022/05/27 04:47:53;;;;;;;4.50;2.00;;;;;;;11.68;100.00;100466.81;5062268;28;20466;-83
2022/05/27 04:50:22;;;;;;;4.95;2.50;;;;;;;11.65;100.00;100467.22;5079886;28;20039;-83
2022/05/27 04:52:48;;;;;;;6.32;1.75;;;;;;;11.67;100.00;100465.16;5061641;28;20040;-83
2022/05/27 04:55:15;;;;;;;5.30;1.97;;;;;;;11.68;100.00;100475.72;5081332;28;20035;-82
2022/05/27 04:57:54;;;;;;;4.03;1.58;;;;;;;11.69;100.00;100468.47;5080708;28;20040;-83
2022/05/27 05:00:25;;;;;;;4.68;2.13;;;;;;;11.70;100.00;100467.44;5081098;28;20025;-82
2022/05/27 05:02:52;;;;;;;4.03;1.80;;;;;;;11.66;100.00;100472.41;5077889;28;20100;-84
2022/05/27 05:05:20;;;;;;;5.57;1.90;;;;;;;11.67;100.00;100474.06;5079455;28;20032;-83
2022/05/27 05:07:52;;;;;;;5.20;1.65;;;;;;;11.72;100.00;100481.53;5079406;28;20032;-84
2022/05/27 05:10:20;;;;;;;4.72;1.85;;;;;;;11.80;100.00;100482.19;5079456;28;20032;-82
2022/05/27 05:12:56;;;;;;;4.07;1.77;;;;;;;11.81;100.00;100475.75;5082454;28;20029;-83
2022/05/27 05:15:23;;;;;;;7.73;2.23;;;;;;;11.87;100.00;100492.97;5086944;28;20029;-82
2022/05/27 05:17:49;;;;;;;5.68;1.63;;;;;;;11.84;100.00;100477.19;5084800;28;20356;-82
2022/05/27 05:20:29;;;;;;;5.03;2.25;;;;;;;11.88;100.00;100472.19;5079753;28;20025;-82
2022/05/27 05:22:54;;;;;;;6.28;2.28;;;;;;;11.89;100.00;100480.06;5081092;28;20036;-79
2022/05/27 05:25:26;;;;;;;5.38;1.88;;;;;;;11.90;100.00;100472.81;5081217;28;20514;-79
2022/05/27 05:27:52;;;;;;;6.10;2.13;;;;;;;11.97;100.00;100482.56;5064416;28;20040;-80
2022/05/27 05:30:21;;;;;;;5.47;2.53;;;;;;;11.96;100.00;100483.59;5084114;28;20084;-81
2022/05/27 05:32:53;;;;;;;5.72;1.85;;;;;;;11.95;100.00;100481.13;5087838;28;20059;-80
2022/05/27 05:35:20;;;;;;;5.32;1.88;;;;;;;11.87;100.00;100487.56;5090115;28;20029;-82
2022/05/27 05:37:54;;;;;;;4.78;1.88;;;;;;;11.93;100.00;100489.41;5089814;28;20036;-81
2022/05/27 05:40:19;;;;;;;6.38;2.05;;;;;;;11.96;100.00;100477.38;5089632;28;20097;-80
2022/05/27 05:42:47;;;;;;;4.07;2.05;;;;;;;11.98;100.00;100483.41;5086280;28;20056;-80
2022/05/27 05:45:18;;;;;;;4.63;2.22;;;;;;;11.95;100.00;100479.25;5084296;28;20127;-81
2022/05/27 05:47:44;;;;;;;5.57;2.20;;;;;;;11.97;100.00;100481.72;5085395;28;20062;-81
2022/05/27 05:50:12;;;;;;;4.78;1.98;;;;;;;12.02;100.00;100488.13;5085773;28;20024;-81
2022/05/27 05:52:38;;;;;;;5.25;1.70;;;;;;;12.08;100.00;100484.59;5082693;28;20036;-80
2022/05/27 05:55:04;;;;;;;4.70;1.75;;;;;;;12.13;100.00;100487.50;5063891;28;20059;-80
2022/05/27 05:57:29;;;;;;;4.28;1.88;;;;;;;12.18;100.00;100494.13;5083686;28;20032;-81
2022/05/27 05:59:55;;;;;;;4.60;1.70;;;;;;;12.19;100.00;100493.88;5082384;28;20051;-81
2022/05/27 06:02:21;;;;;;;5.40;2.35;;;;;;;12.20;100.00;100497.41;5083942;28;20255;-80
2022/05/27 06:04:46;;;;;;;4.43;1.70;;;;;;;12.19;100.00;100491.19;5084507;28;20038;-81
2022/05/27 06:07:13;;;;;;;4.75;1.58;;;;;;;12.24;100.00;100493.25;5081954;28;20039;-81
2022/05/27 06:09:40;;;;;;;5.75;2.40;;;;;;;12.25;100.00;100501.16;5081424;28;20062;-80
2022/05/27 06:12:09;;;;;;;3.85;1.90;;;;;;;12.34;100.00;100507.16;5081849;28;20036;-80
2022/05/27 06:14:36;;;;;;;4.22;1.83;;;;;;;12.36;100.00;100508.56;5080045;28;20498;-81
2022/05/27 06:17:02;;;;;;;4.28;2.03;;;;;;;12.44;100.00;100508.34;5081576;28;20091;-81
2022/05/27 06:19:30;;;;;;;5.60;2.05;;;;;;;12.44;100.00;100515.63;5083002;28;20025;-80
2022/05/27 06:22:06;;;;;;;5.00;1.85;;;;;;;12.41;100.00;100507.94;5083573;28;20036;-81
2022/05/27 06:24:37;;;;;;;4.75;2.17;;;;;;;12.45;100.00;100511.88;5064745;28;20056;-81
2022/05/27 06:27:06;;;;;;;4.43;2.03;;;;;;;12.48;100.00;100511.44;5083041;28;20029;-81
2022/05/27 06:35:03;;;;;;;4.88;1.70;;;;;;;12.60;100.00;100508.88;5083081;28;20421;-82
2022/05/27 06:37:29;;;;;;;5.63;2.00;;;;;;;12.60;100.00;100512.44;5083621;28;20052;-81
2022/05/27 06:39:55;;;;;;;4.72;1.63;;;;;;;12.78;100.00;100512.53;5083166;28;20033;-80
2022/05/27 06:42:22;;;;;;;4.20;2.00;;;;;;;13.10;100.00;100515.22;5084122;28;20020;-82
2022/05/27 06:44:51;;;;;;;4.93;2.28;;;;;;;13.28;99.58;100512.63;5084241;28;20092;-80
2022/05/27 06:47:19;;;;;;;7.75;2.20;;;;;;;13.31;98.81;100514.91;5086368;28;20062;-80
2022/05/27 06:49:45;;;;;;;6.85;2.10;;;;;;;13.41;97.59;100517.97;5085503;28;20035;-79
2022/05/27 06:52:37;;;;;;;6.63;2.00;;;;;;;13.59;96.47;100522.59;5084445;28;20056;-80
2022/05/27 06:55:03;;;;;;;4.13;1.70;;;;;;;13.94;95.91;100516.63;5083692;28;20279;-81
2022/05/27 06:57:28;;;;;;;;;;;;;;;14.02;94.64;100527.16;5086589;28;20056;-81
2022/05/27 06:59:58;;;;;;;4.97;1.88;;;;;;;14.09;91.97;100520.63;5085902;28;19963;-80
2022/05/27 07:02:26;;;;;;;7.03;1.85;;;;;;;14.07;92.50;100521.88;5084233;28;20123;-82
2022/05/27 07:04:52;;;;;;;6.97;1.92;;;;;;;13.76;91.86;100531.81;5083610;28;20036;-82
2022/05/27 07:07:17;;;;;;;6.40;2.77;;;;;;;14.01;92.65;100529.03;5085231;28;20088;-80
2022/05/27 07:09:45;;;;;;;6.78;1.75;;;;;;;14.15;92.66;100530.53;5082712;28;20350;-79
2022/05/27 07:12:15;;;;;;;5.15;1.67;;;;;;;14.08;91.89;100532.50;5064997;28;20041;-80
2022/05/27 07:14:46;;;;;;;3.70;1.73;;;;;;;13.87;91.59;100524.81;5082455;28;20028;-80
2022/05/27 07:17:12;;;;;;;4.22;1.80;;;;;;;13.67;93.32;100519.59;5080482;28;20032;-81
2022/05/27 07:19:39;;;;;;;4.60;2.47;;;;;;;13.66;93.17;100515.22;5061954;28;20059;-80
2022/05/27 07:22:14;;;;;;;5.30;1.98;;;;;;;13.58;92.97;100523.63;5062343;28;20520;-79
2022/05/27 07:24:43;;;;;;;5.68;2.15;;;;;;;13.44;91.68;100527.47;5081065;28;20062;-80
2022/05/27 07:27:11;;;;;;;5.40;2.70;;;;;;;13.47;92.14;100532.47;5062512;28;20041;-80
2022/05/27 07:29:46;;;;;;;7.10;2.35;;;;;;;13.37;93.23;100529.44;5061825;28;20514;-79
2022/05/27 07:32:11;;;;;;;6.68;2.20;;;;;;;13.51;94.05;100533.69;5059359;28;20032;-80
2022/05/27 07:34:38;;;;;;;4.88;2.00;;;;;;;13.73;93.37;100542.25;5079665;28;20037;-78
2022/05/27 07:37:04;;;;;;;8.02;2.97;;;;;;;13.74;95.16;100539.31;5079447;28;20041;-80
2022/05/27 07:39:52;;;;;;;5.90;2.55;;;;;;;13.72;94.20;100536.00;5079430;28;20032;-80
2022/05/27 07:42:23;;;;;;;7.65;3.25;;;;;;;13.71;92.76;100537.06;5051192;28;20037;-79
2022/05/27 07:44:50;;;;;;;4.90;2.65;;;;;;;13.62;90.92;100534.81;5080324;28;20040;-80
2022/05/27 07:47:39;;;;;;;6.93;2.28;;;;;;;13.63;91.02;100531.06;5060944;28;20044;-80
2022/05/27 07:50:08;;;;;;;5.78;3.17;;;;;;;13.95;92.22;100537.25;5079025;28;20024;-79
2022/05/27 07:52:39;;;;;;;7.47;3.40;;;;;;;14.07;89.44;100533.56;5080004;28;20479;-80
2022/05/27 07:55:34;;;;;;;6.85;3.10;;;;;;;14.24;87.70;100528.38;5061553;28;20024;-81
2022/05/27 07:58:00;;;;;;;5.20;2.45;;;;;;;14.25;88.11;100528.16;5078528;28;20029;-79
2022/05/27 08:00:28;;;;;;;5.82;3.03;;;;;;;14.28;86.75;100521.44;5078280;28;20108;-77
2022/05/27 08:02:54;;;;;;;6.85;2.70;;;;;;;14.38;84.99;100524.44;5057497;28;20545;-78
2022/05/27 08:05:22;;;;;;;11.07;2.88;;;;;;;14.38;84.86;100521.72;5076194;28;20040;-78
2022/05/27 08:07:49;;;;;;;8.05;3.15;;;;;;;14.54;84.05;100521.13;5076338;28;20543;-78
2022/05/27 08:10:17;;;;;;;6.78;2.70;;;;;;;14.60;81.39;100527.53;5076463;28;20063;-78
2022/05/27 08:12:43;;;;;;;5.90;2.78;;;;;;;14.57;82.04;100528.81;5076559;28;20524;-77
2022/05/27 08:15:09;;;;;;;4.33;2.30;;;;;;;14.59;81.58;100521.28;5057811;28;20119;-78
2022/05/27 08:17:38;;;;;;;9.13;2.75;;;;;;;14.63;82.90;100524.38;5076247;28;20251;-78
2022/05/27 08:20:05;;;;;;;5.93;2.70;;;;;;;14.53;83.21;100530.31;5076149;28;20451;-78
2022/05/27 08:22:31;;;;;;;6.30;2.90;;;;;;;14.50;81.24;100527.25;5076451;28;20033;-77
2022/05/27 08:24:56;;;;;;;6.55;3.05;;;;;;;14.44;80.95;100528.16;5078568;28;20039;-77
2022/05/27 08:27:21;;;;;;;;;;;;;;;14.56;81.04;100534.47;5059217;28;20055;-77
2022/05/27 08:29:47;;;;;;;5.50;2.43;;;;;;;14.65;80.58;100535.81;5076252;28;19915;-77
2022/05/27 08:32:12;;;;;;;;;;;;;;;14.57;78.69;100528.81;5078365;28;20097;-77
2022/05/27 08:40:23;;;;;;;5.15;2.17;;;;;;;14.90;80.19;100530.25;5075880;28;20090;-77
2022/05/27 08:42:57;;;;;;;4.30;2.35;;;;;;;15.07;77.50;100533.13;5076011;28;20107;-78
2022/05/27 08:45:33;;;;;;;4.32;1.75;;;;;;;15.34;77.12;100536.28;5076618;28;20119;-78
2022/05/27 08:48:04;;;;;;;3.83;1.50;;;;;;;15.28;73.02;100530.72;5076776;28;20032;-78
2022/05/27 08:50:53;;;;;;;4.88;2.70;;;;;;;15.35;72.32;100540.66;5075457;28;20040;-76
2022/05/27 08:53:46;;;;;;;3.40;1.20;;;;;;;15.37;70.79;100539.34;5075568;28;20032;-77
2022/05/27 08:59:27;;;;;;;6.75;1.92;;;;;;;15.62;68.56;100537.28;5075470;28;20071;-77
2022/05/27 09:02:31;;;;;;;5.10;1.30;;;;;;;15.47;69.82;100539.59;5074523;28;20028;-77
2022/05/27 09:05:08;;;;;;;6.38;2.03;;;;;;;15.27;70.34;100549.94;5075027;28;20123;-77
2022/05/27 09:07:39;;;;;;;4.70;1.85;;;;;;;15.19;70.44;100550.28;5075078;28;20060;-77
2022/05/27 09:10:08;;;;;;;4.45;2.05;;;;;;;15.42;70.67;100549.50;5075255;28;20044;-77
2022/05/27 09:12:54;;;;;;;4.18;1.70;;;;;;;15.44;69.53;100545.50;5075609;28;20032;-76
2022/05/27 09:15:57;;;;;;;2.95;1.35;;;;;;;15.62;68.27;100537.28;5074627;28;20094;-77
2022/05/27 09:18:54;;;;;;;4.55;2.53;;;;;;;15.60;66.88;100538.56;5074898;28;20033;-77
2022/05/27 09:21:43;;;;;;;4.85;1.58;;;;;;;15.76;63.21;100534.34;5074571;28;20039;-76
2022/05/27 09:24:08;;;;;;;5.07;2.00;;;;;;;15.84;64.28;100536.69;5074820;28;20050;-77
2022/05/27 09:26:49;;;;;;;3.67;1.40;;;;;;;15.76;62.29;100532.47;5074253;28;20778;-77
2022/05/27 09:29:37;;;;;;;4.45;1.40;;;;;;;16.09;63.08;100536.47;5074593;28;20089;-77
2022/05/27 09:32:13;;;;;;;4.15;1.10;;;;;;;16.17;59.32;100545.06;5074498;28;20050;-77
2022/05/27 09:34:42;;;;;;;3.75;1.27;;;;;;;16.05;58.82;100555.13;5074732;28;20036;-77
2022/05/27 09:37:10;;;;;;;4.28;1.50;;;;;;;16.07;57.26;100553.00;5074614;28;20070;-77
2022/05/27 09:39:35;;;;;;;3.83;1.38;;;;;;;15.85;57.21;100555.50;5075039;28;20025;-77
2022/05/27 09:42:13;;;;;;;6.18;1.65;;;;;;;15.91;57.34;100554.56;5074733;28;20040;-77
2022/05/27 09:44:48;;;;;;;4.95;1.30;;;;;;;16.16;57.03;100551.56;5074461;28;20040;-77
2022/05/27 09:47:16;;;;;;;3.20;1.20;;;;;;;16.48;55.89;100553.91;5075142;28;20029;-77
2022/05/27 09:49:43;;;;;;;4.90;1.75;;;;;;;16.58;56.33;100564.97;5074570;28;20165;-77
2022/05/27 09:52:08;;;;;;;3.97;1.20;;;;;;;16.67;55.46;100545.31;5074745;28;20028;-77
2022/05/27 09:54:34;;;;;;;;;;;;;;;16.77;55.16;100560.22;5075349;28;20039;-77
2022/05/27 09:57:14;;;;;;;4.10;1.58;;;;;;;16.65;55.58;100568.41;5074648;28;20003;-77
2022/05/27 09:59:39;;;;;;;6.10;1.92;;;;;;;16.41;57.26;100561.34;5056831;28;20530;-77
2022/05/27 10:02:13;;;;;;;;;;;;;;;16.47;56.81;100558.50;5075257;28;20036;-77
2022/05/27 10:05:00;;;;;;;5.07;1.55;;;;;;;16.51;57.17;100572.44;5074911;28;19948;-77
2022/05/27 10:07:27;;;;;;;2.10;1.00;;;;;;;16.41;57.18;100572.22;5074500;28;20055;-77
2022/05/27 10:09:53;;;;;;;4.05;1.40;;;;;;;16.42;56.74;100571.16;5075009;28;20466;-77
2022/05/27 10:12:28;;;;;;;;;;;;;;;16.18;57.43;100571.19;5075089;28;20024;-77
2022/05/27 10:14:55;;;;;;;3.15;1.15;;;;;;;16.17;57.58;100569.53;5056216;28;19912;-77
2022/05/27 10:17:36;;;;;;;2.90;1.23;;;;;;;16.38;57.38;100564.53;5074445;28;20035;-77
2022/05/27 10:20:20;;;;;;;4.32;1.83;;;;;;;16.40;56.75;100565.13;5074143;28;20033;-77
2022/05/27 10:23:10;;;;;;;3.80;1.42;;;;;;;16.36;57.20;100559.34;5074192;28;20494;-77
2022/05/27 10:25:41;;;;;;;4.38;1.35;;;;;;;16.29;56.85;100564.09;5074234;28;20033;-77
2022/05/27 10:28:09;;;;;;;6.85;1.88;;;;;;;16.29;56.17;100566.81;5073871;28;20040;-77
2022/05/27 10:30:50;;;;;;;2.83;1.20;;;;;;;16.26;55.46;100570.84;5074048;28;20112;-77
2022/05/27 10:33:34;;;;;;;6.47;1.60;;;;;;;16.29;56.63;100561.38;5074457;28;20057;-77
2022/05/27 10:36:00;;;;;;;7.13;1.85;;;;;;;16.37;55.68;100557.44;5074974;28;20032;-77
2022/05/27 10:38:31;;;;;;;;;;;;;;;16.36;54.83;100572.09;5075328;28;20455;-77
2022/05/27 10:41:16;;;;;;;3.95;1.38;;;;;;;16.42;54.44;100558.38;5075090;28;19925;-77
2022/05/27 10:43:56;;;;;;;3.58;1.38;;;;;;;16.43;54.19;100556.50;5075385;28;20032;-77
2022/05/27 10:46:27;;;;;;;6.45;1.35;;;;;;;16.70;52.79;100560.34;5074976;28;20032;-77
2022/05/27 10:49:14;;;;;;;4.45;1.40;;;;;;;16.76;52.33;100558.56;5075213;28;20032;-78
2022/05/27 10:52:00;;;;;;;7.10;1.75;;;;;;;16.76;52.63;100553.13;5075518;28;20032;-78
2022/05/27 10:54:40;;;;;;;5.20;1.55;;;;;;;17.17;50.91;100539.19;5079422;28;20107;-80
2022/05/27 11:03:35;;;;;;;3.28;1.40;;;;;;;17.15;49.20;100548.69;5079430;28;20040;-78
2022/05/27 11:06:25;;;;;;;3.47;1.10;;;;;;;17.18;49.45;100540.84;5080143;28;20024;-79
2022/05/27 11:09:19;;;;;;;5.57;1.10;;;;;;;17.19;49.35;100556.13;5078521;28;20521;-78
2022/05/27 11:11:58;;;;;;;6.07;1.40;;;;;;;17.28;49.74;100540.19;5077082;28;20426;-79
2022/05/27 11:17:33;;;;;;;3.10;1.00;;;;;;;17.51;48.62;100547.41;5077991;28;20051;-78
2022/05/27 11:20:35;;;;;;;2.58;0.90;;;;;;;17.66;47.92;100543.03;5075677;28;20028;-78
2022/05/27 11:23:36;;;;;;;5.25;1.15;;;;;;;17.48;48.56;100550.63;5076274;28;20040;-78
2022/05/27 11:26:08;;;;;;;4.28;1.20;;;;;;;16.98;50.70;100559.53;5076039;28;20122;-78
2022/05/27 11:29:12;;;;;;;3.55;1.50;;;;;;;16.83;50.92;100551.09;5076517;28;20033;-79
2022/05/27 11:32:25;;;;;;;5.80;1.30;;;;;;;16.78;49.64;100562.69;5045506;28;20051;-78
2022/05/27 11:35:26;;;;;;;4.90;1.52;;;;;;;16.97;48.86;100555.16;4993802;28;20049;-78
2022/05/27 11:38:09;;;;;;;3.95;1.13;;;;;;;17.33;49.38;100552.00;5045518;28;20055;-79
2022/05/27 11:41:05;;;;;;;2.03;0.90;;;;;;;17.95;47.25;100545.66;5078765;28;20040;-79
2022/05/27 11:44:01;;;;;;;2.83;1.00;;;;;;;17.68;47.60;100554.53;5076334;28;20028;-78
2022/05/27 11:46:45;;;;;;;3.38;1.00;;;;;;;17.44;48.80;100553.00;5076468;28;20102;-80
2022/05/27 11:49:35;;;;;;;4.57;1.52;;;;;;;17.48;48.11;100550.63;5077692;28;20046;-78
2022/05/27 11:52:28;;;;;;;6.03;1.50;;;;;;;17.57;48.10;100555.38;5076122;28;20103;-79
2022/05/27 11:55:26;;;;;;;6.93;1.77;;;;;;;18.09;46.93;100552.41;5077518;28;20102;-79
2022/05/27 11:58:06;;;;;;;5.70;1.70;;;;;;;18.15;45.96;100542.38;5077654;28;20024;-79
2022/05/27 12:00:38;;;;;;;5.18;0.98;;;;;;;18.14;46.02;100557.94;5079100;28;20083;-80
2022/05/27 12:03:26;;;;;;;3.78;1.02;;;;;;;17.80;45.89;100548.97;5060177;28;20059;-79
2022/05/27 12:05:58;;;;;;;4.80;1.30;;;;;;;17.77;45.06;100548.66;5079132;28;20032;-80
2022/05/27 12:08:40;;;;;;;4.22;0.98;;;;;;;17.94;44.84;100547.56;5084760;28;20066;-79
2022/05/27 12:11:14;;;;;;;7.28;1.17;;;;;;;18.09;44.55;100552.41;5083510;28;20473;-79
2022/05/27 12:13:51;;;;;;;2.50;1.05;;;;;;;18.77;43.83;100551.13;5084098;28;20082;-80
2022/05/27 12:16:20;;;;;;;4.85;0.73;;;;;;;18.03;44.05;100539.78;5082940;28;20399;-78
2022/05/27 12:19:23;;;;;;;3.92;1.00;;;;;;;19.01;42.52;100543.47;5084889;28;20032;-79
2022/05/27 12:21:58;;;;;;;4.38;1.10;;;;;;;19.64;40.93;100547.34;5085904;28;20035;-81
2022/05/27 12:24:31;;;;;;;6.93;1.45;;;;;;;19.97;39.05;100546.22;5083990;28;20024;-80
2022/05/27 12:26:58;;;;;;;2.42;1.15;;;;;;;19.62;38.84;100533.94;5084476;28;20140;-79
2022/05/27 12:29:26;;;;;;;5.07;1.27;;;;;;;19.74;39.53;100533.75;5086499;28;20040;-79